Search for airport 
image banner adimage banner ad
image banner ad

SVMC - Maracaibo / La Chinita Intl

Located in Maracaibo, Venezuela

ICAO - SVMC, IATA - MAR

Data provided by Airmate  

General information

Coordinates: N10°33'30" W71°43'44"
Elevation is 240 feet MSL.
 
View others Airports in Zulia

Operational data

Open for public use
Current time UTC:
Current local time:
Weather
METAR: SVMC 301402Z AUTO 26002KT NCD 28/23 Q1012
TAF: TAF SVMC 301000Z 3012/0112 00000KT 9999 FEW013 TX34/3019Z TN23/3007Z BECMG 3015/3020 18006KT SCT013 FM302100 09006KT 9999 SCT013 SCT070
View NOTAMs / SUP AIP / TFR affecting this airport [VIEW]
Communications frequencies: [VIEW]

Runways:

RWY identifierQFULength (ft)Width (ft)SurfaceLDA (ft)
03L23°9843148
21R203°9843148
03R23°820298CONCRETE
21L203°820298

Airport contact information

Address: Maracaibo Venezuela

Satellite view of SVMC